createdAt,value
2018-01-02T00:02:09.656Z,46.10
2018-01-02T00:04:37.223Z,39.90
2018-01-02T00:07:04.839Z,30.97
2018-01-02T00:09:32.403Z,28.17
2018-01-02T00:11:59.982Z,28.80
2018-01-02T00:14:27.651Z,27.13
2018-01-02T00:16:55.218Z,28.87
2018-01-02T00:19:22.793Z,25.80
2018-01-02T00:21:50.414Z,25.67
2018-01-02T00:24:17.987Z,26.10
2018-01-02T00:26:45.568Z,38.50
2018-01-02T00:29:13.186Z,47.10
2018-01-02T00:31:40.770Z,53.13
2018-01-02T00:34:08.346Z,48.60
2018-01-02T00:36:35.969Z,44.23
2018-01-02T00:39:03.628Z,41.30
2018-01-02T00:41:31.207Z,41.90
2018-01-02T00:43:58.831Z,49.90
2018-01-02T00:46:26.414Z,51.70
2018-01-02T00:48:53.990Z,52.57
2018-01-02T00:51:21.606Z,42.13
2018-01-02T00:53:49.189Z,44.73
2018-01-02T00:56:16.900Z,34.37
2018-01-02T00:58:44.518Z,41.50
2018-01-02T01:01:12.328Z,40.70
2018-01-02T01:03:39.906Z,36.57
2018-01-02T01:06:07.521Z,32.70
2018-01-02T01:08:35.106Z,36.23
2018-01-02T01:11:02.676Z,32.60
2018-01-02T01:13:30.322Z,31.80
2018-01-02T01:15:57.900Z,33.03
2018-01-02T01:18:25.485Z,41.17
2018-01-02T01:20:53.112Z,35.53
2018-01-02T01:23:20.676Z,38.60
2018-01-02T01:25:48.248Z,35.77
2018-01-02T01:28:15.878Z,34.53
2018-01-02T01:30:43.462Z,33.17
2018-01-02T01:33:11.041Z,32.83
2018-01-02T01:35:38.656Z,36.30
2018-01-02T01:38:06.249Z,35.27
2018-01-02T01:40:33.853Z,31.10
2018-01-02T01:43:01.485Z,34.33
2018-01-02T01:45:29.055Z,32.53
2018-01-02T01:47:56.645Z,31.93
2018-01-02T01:50:24.257Z,31.43
2018-01-02T01:52:51.824Z,30.50
2018-01-02T01:55:19.397Z,29.87
2018-01-02T01:57:46.995Z,30.63
2018-01-02T02:00:14.599Z,31.27
2018-01-02T02:02:42.226Z,30.00
2018-01-02T02:05:09.839Z,28.73
2018-01-02T02:07:37.408Z,30.67
2018-01-02T02:10:04.998Z,29.40
2018-01-02T02:12:32.614Z,28.60
2018-01-02T02:15:00.198Z,27.80
2018-01-02T02:17:28.687Z,32.73
2018-01-02T02:19:56.497Z,33.30
2018-01-02T02:22:24.081Z,26.87
2018-01-02T02:24:51.660Z,29.77
2018-01-02T02:27:19.263Z,37.43
2018-01-02T02:29:46.831Z,40.73
2018-01-02T02:32:14.386Z,39.80
2018-01-02T02:34:42.012Z,40.53
2018-01-02T02:37:09.591Z,36.70
2018-01-02T02:39:37.183Z,33.70
2018-01-02T02:42:04.805Z,33.60
2018-01-02T02:44:32.390Z,32.30
2018-01-02T02:46:59.972Z,30.57
2018-01-02T02:49:27.585Z,29.33
2018-01-02T02:51:55.158Z,32.03
2018-01-02T02:54:22.712Z,36.90
2018-01-02T02:56:50.323Z,35.27
2018-01-02T02:59:17.898Z,38.37
2018-01-02T03:01:45.494Z,36.20
2018-01-02T03:04:13.101Z,36.90
2018-01-02T03:06:40.690Z,38.20
2018-01-02T03:09:08.269Z,34.13
2018-01-02T03:11:35.881Z,34.00
2018-01-02T03:14:03.457Z,34.70
2018-01-02T03:16:31.137Z,37.00
2018-01-02T03:18:58.742Z,33.73
2018-01-02T03:21:26.325Z,31.37
2018-01-02T03:23:53.910Z,31.67
2018-01-02T03:26:21.556Z,29.57
2018-01-02T03:28:49.127Z,30.63
2018-01-02T03:31:16.711Z,30.60
2018-01-02T03:33:44.322Z,32.10
2018-01-02T03:36:11.893Z,34.57
2018-01-02T03:38:39.464Z,34.60
2018-01-02T03:41:07.081Z,34.10
2018-01-02T03:43:34.662Z,31.47
2018-01-02T03:46:02.249Z,31.53
2018-01-02T03:48:29.879Z,30.30
2018-01-02T03:50:57.443Z,28.70
2018-01-02T03:53:25.021Z,28.10
2018-01-02T03:55:52.656Z,30.27
2018-01-02T03:58:20.235Z,30.80
2018-01-02T04:00:47.813Z,32.63
2018-01-02T04:03:15.481Z,32.30
2018-01-02T04:05:43.059Z,31.37
2018-01-02T04:08:10.634Z,29.57
2018-01-02T04:10:38.327Z,30.07
2018-01-02T04:13:05.905Z,29.90
2018-01-02T04:15:33.454Z,31.07
2018-01-02T04:18:01.073Z,28.30
2018-01-02T04:20:28.648Z,29.60
2018-01-02T04:22:56.239Z,27.57
2018-01-02T04:25:23.849Z,29.60
2018-01-02T04:27:51.418Z,30.70
2018-01-02T04:30:18.973Z,29.97
2018-01-02T04:32:46.589Z,32.17
2018-01-02T04:35:14.173Z,31.10
2018-01-02T04:37:41.753Z,31.63
2018-01-02T04:40:09.421Z,29.37
2018-01-02T04:42:37.002Z,28.27
2018-01-02T04:45:04.563Z,30.63
2018-01-02T04:47:32.184Z,30.30
2018-01-02T04:49:59.774Z,29.57
2018-01-02T04:52:27.358Z,28.10
2018-01-02T04:54:54.976Z,28.40
2018-01-02T04:57:22.558Z,28.67
2018-01-02T04:59:50.119Z,29.93
2018-01-02T05:02:17.751Z,31.30
2018-01-02T05:04:45.341Z,30.50
2018-01-02T05:07:12.945Z,32.97
2018-01-02T05:09:40.678Z,35.17
2018-01-02T05:12:08.270Z,39.63
2018-01-02T05:14:36.012Z,38.43
2018-01-02T05:17:03.616Z,37.90
2018-01-02T05:19:31.186Z,38.03
2018-01-02T05:21:58.761Z,39.40
2018-01-02T05:24:26.399Z,39.73
2018-01-02T05:26:54.015Z,41.60
2018-01-02T05:29:21.662Z,41.83
2018-01-02T05:31:49.272Z,41.63
2018-01-02T05:34:16.853Z,35.63
2018-01-02T05:36:44.440Z,38.00
2018-01-02T05:39:12.062Z,35.93
2018-01-02T05:41:39.640Z,34.27
2018-01-02T05:44:07.229Z,35.13
2018-01-02T05:46:34.853Z,39.03
2018-01-02T05:49:02.426Z,34.73
2018-01-02T05:51:29.978Z,36.83
2018-01-02T05:53:57.596Z,38.60
2018-01-02T05:56:25.164Z,36.87
2018-01-02T05:58:52.745Z,38.10
2018-01-02T06:01:20.360Z,37.27
2018-01-02T06:03:47.950Z,37.50
2018-01-02T06:06:15.568Z,44.70
2018-01-02T06:08:43.180Z,39.40
2018-01-02T06:11:10.790Z,54.90
2018-01-02T06:13:38.363Z,63.27
2018-01-02T06:16:05.991Z,99.20
2018-01-02T06:18:33.592Z,67.50
2018-01-02T06:21:01.216Z,63.30
2018-01-02T06:23:28.938Z,57.57
2018-01-02T06:25:56.588Z,51.77
2018-01-02T06:28:24.172Z,70.73
2018-01-02T06:30:51.802Z,47.90
2018-01-02T06:33:19.391Z,50.03
2018-01-02T06:35:46.961Z,57.30
2018-01-02T06:38:14.571Z,56.57
2018-01-02T06:40:42.143Z,65.30
2018-01-02T06:43:09.716Z,55.77
2018-01-02T06:45:37.348Z,94.70
2018-01-02T06:48:04.930Z,64.23
2018-01-02T06:50:32.502Z,54.60
2018-01-02T06:53:00.158Z,51.30
2018-01-02T06:55:27.734Z,49.27
2018-01-02T06:57:55.309Z,43.00
2018-01-02T07:00:22.930Z,36.60
2018-01-02T07:02:50.497Z,34.50
2018-01-02T07:05:18.081Z,38.83
2018-01-02T07:07:45.720Z,36.40
2018-01-02T07:10:13.300Z,41.37
2018-01-02T07:12:40.887Z,46.83
2018-01-02T07:15:08.511Z,44.00
2018-01-02T07:17:36.092Z,38.33
2018-01-02T07:20:03.717Z,36.27
2018-01-02T07:22:31.346Z,42.37
2018-01-02T07:24:58.968Z,34.50
2018-01-02T07:27:26.543Z,38.40
2018-01-02T07:29:54.150Z,36.50
2018-01-02T07:32:21.739Z,38.70
2018-01-02T07:34:49.335Z,37.50
2018-01-02T07:37:16.956Z,36.40
2018-01-02T07:39:44.523Z,31.47
2018-01-02T07:42:12.087Z,30.97
2018-01-02T07:44:39.755Z,27.33
2018-01-02T07:47:07.349Z,29.30
2018-01-02T07:49:34.936Z,26.97
2018-01-02T07:52:02.555Z,25.63
2018-01-02T07:54:30.133Z,24.43
2018-01-02T07:56:57.728Z,19.93
2018-01-02T07:59:25.353Z,21.23
2018-01-02T08:01:55.855Z,21.03
2018-01-02T08:04:23.456Z,20.07
2018-01-02T08:06:51.118Z,21.60
2018-01-02T08:09:18.704Z,18.43
2018-01-02T08:11:46.294Z,17.03
2018-01-02T08:14:13.927Z,17.97
2018-01-02T08:16:41.528Z,17.23
2018-01-02T08:19:09.115Z,17.63
2018-01-02T08:21:36.751Z,19.77
2018-01-02T08:24:04.389Z,18.77
2018-01-02T08:26:31.982Z,17.30
2018-01-02T08:28:59.617Z,18.50
2018-01-02T08:31:27.192Z,15.70
2018-01-02T08:33:54.782Z,16.50
2018-01-02T08:36:28.229Z,18.37
2018-01-02T08:38:55.913Z,17.97
2018-01-02T08:41:23.537Z,17.03
2018-01-02T08:43:51.173Z,16.70
2018-01-02T08:46:18.766Z,18.80
2018-01-02T08:48:46.401Z,22.00
2018-01-02T08:51:14.103Z,24.60
2018-01-02T08:53:41.689Z,26.30
2018-01-02T08:56:09.285Z,20.93
2018-01-02T08:58:36.923Z,18.90
2018-01-02T09:01:04.510Z,17.07
2018-01-02T09:03:32.117Z,17.77
2018-01-02T09:05:59.753Z,15.47
2018-01-02T09:08:27.357Z,15.10
2018-01-02T09:10:54.998Z,14.40
2018-01-02T09:16:21.710Z,11.20
2018-01-02T09:18:49.329Z,11.27
2018-01-02T09:21:16.921Z,11.60
2018-01-02T09:23:44.534Z,13.53
2018-01-02T09:26:12.270Z,13.30
2018-01-02T09:28:39.854Z,13.97
2018-01-02T09:31:07.446Z,15.33
2018-01-02T09:33:35.081Z,12.37
2018-01-02T09:36:02.669Z,15.70
2018-01-02T09:38:30.233Z,16.30
2018-01-02T09:40:57.853Z,26.80
2018-01-02T09:43:25.427Z,17.33
2018-01-02T09:45:53.105Z,18.30
2018-01-02T09:48:20.715Z,14.47
2018-01-02T09:50:48.299Z,21.17
2018-01-02T09:53:15.872Z,18.43
2018-01-02T09:55:43.520Z,17.77
2018-01-02T09:58:11.088Z,20.60
2018-01-02T10:00:38.744Z,15.20
2018-01-02T10:03:06.350Z,22.90
2018-01-02T10:05:33.944Z,20.03
2018-01-02T10:08:01.565Z,21.20
2018-01-02T10:10:29.215Z,19.57
2018-01-02T10:12:56.816Z,16.17
2018-01-02T10:15:24.461Z,21.20
2018-01-02T10:17:52.224Z,17.20
2018-01-02T10:20:19.790Z,13.70
2018-01-02T10:22:47.375Z,12.93
2018-01-02T10:25:14.988Z,13.60
2018-01-02T10:27:42.760Z,16.10
2018-01-02T10:30:10.345Z,23.33
2018-01-02T10:32:37.960Z,14.70
2018-01-02T10:35:05.518Z,13.30
2018-01-02T10:37:33.097Z,14.10
2018-01-02T10:40:00.695Z,18.70
2018-01-02T10:42:28.248Z,24.20
2018-01-02T10:44:55.806Z,38.67
2018-01-02T10:47:23.404Z,17.20
2018-01-02T10:49:50.959Z,50.83
2018-01-02T10:52:18.540Z,39.23
2018-01-02T10:54:46.144Z,37.93
2018-01-02T10:57:13.837Z,52.67
2018-01-02T10:59:41.425Z,33.57
2018-01-02T11:02:09.048Z,29.30
2018-01-02T11:04:36.655Z,25.93
2018-01-02T11:07:04.231Z,21.07
2018-01-02T11:09:31.869Z,25.07
2018-01-02T11:11:59.464Z,11.73
2018-01-02T11:14:42.921Z,17.87
2018-01-02T11:17:10.500Z,19.10
2018-01-02T11:19:38.109Z,14.57
2018-01-02T11:22:05.819Z,8.20
2018-01-02T11:24:33.400Z,13.67
2018-01-02T11:27:00.967Z,22.10
2018-01-02T11:29:28.603Z,23.90
2018-01-02T11:31:56.264Z,16.50
2018-01-02T11:34:23.850Z,22.63
2018-01-02T11:36:51.472Z,20.80
2018-01-02T11:39:19.039Z,19.17
2018-01-02T11:41:46.583Z,14.67
2018-01-02T11:44:14.200Z,18.80
2018-01-02T11:46:41.771Z,34.63
2018-01-02T11:49:09.344Z,20.40
2018-01-02T11:51:36.959Z,20.27
2018-01-02T11:54:04.563Z,21.27
2018-01-02T11:56:32.190Z,20.97
2018-01-02T11:58:59.816Z,15.53
2018-01-02T12:01:27.427Z,20.33
2018-01-02T12:03:55.010Z,20.90
2018-01-02T12:06:22.626Z,15.17
2018-01-02T12:08:50.187Z,15.20
2018-01-02T12:11:17.754Z,16.07
2018-01-02T12:13:45.395Z,51.47
2018-01-02T12:16:12.956Z,31.17
2018-01-02T12:18:40.518Z,14.77
2018-01-02T12:21:08.116Z,31.37
2018-01-02T12:23:35.717Z,48.17
2018-01-02T12:26:03.270Z,29.77
2018-01-02T12:28:30.877Z,28.10
2018-01-02T12:30:58.505Z,16.83
2018-01-02T12:33:26.579Z,10.30
2018-01-02T12:35:54.181Z,9.30
2018-01-02T12:38:21.751Z,10.83
2018-01-02T12:40:49.301Z,10.93
2018-01-02T12:43:16.905Z,14.23
2018-01-02T12:45:44.475Z,11.87
2018-01-02T12:48:12.053Z,11.20
2018-01-02T12:50:39.631Z,9.93
2018-01-02T12:53:07.218Z,7.70
2018-01-02T12:55:34.794Z,9.30
2018-01-02T12:58:02.415Z,12.50
2018-01-02T13:00:29.993Z,11.20
2018-01-02T13:02:57.565Z,12.63
2018-01-02T13:05:25.172Z,12.47
2018-01-02T13:07:52.745Z,11.23
2018-01-02T13:10:20.320Z,12.03
2018-01-02T13:12:47.907Z,10.10
2018-01-02T13:15:15.491Z,10.53
2018-01-02T13:17:43.119Z,10.90
2018-01-02T13:20:10.742Z,8.03
2018-01-02T13:22:38.303Z,10.63
2018-01-02T13:25:05.882Z,10.40
2018-01-02T13:27:33.486Z,10.17
2018-01-02T13:30:01.054Z,10.40
2018-01-02T13:32:28.665Z,10.70
2018-01-02T13:34:56.292Z,12.77
2018-01-02T13:37:23.967Z,10.93
2018-01-02T13:39:51.562Z,10.63
2018-01-02T13:42:19.213Z,10.13
2018-01-02T13:44:46.765Z,9.70
2018-01-02T13:47:14.348Z,10.30
2018-01-02T13:49:41.954Z,11.30
2018-01-02T13:52:09.557Z,11.70
2018-01-02T13:54:37.144Z,11.90
2018-01-02T13:57:04.762Z,10.60
2018-01-02T13:59:32.355Z,11.03
2018-01-02T14:01:59.951Z,11.40
2018-01-02T14:04:27.641Z,12.40
2018-01-02T14:06:55.230Z,14.50
2018-01-02T14:09:22.832Z,11.03
2018-01-02T14:11:50.442Z,9.70
2018-01-02T14:14:18.085Z,8.50
2018-01-02T14:16:45.659Z,10.00
2018-01-02T14:19:13.268Z,14.67
2018-01-02T14:21:40.843Z,17.67
2018-01-02T14:24:08.425Z,19.57
2018-01-02T14:26:36.040Z,16.43
2018-01-02T14:29:03.644Z,25.70
2018-01-02T14:31:31.216Z,20.40
2018-01-02T14:33:58.832Z,21.67
2018-01-02T14:36:26.430Z,27.93
2018-01-02T14:38:54.003Z,23.53
2018-01-02T14:41:21.636Z,17.87
2018-01-02T14:43:49.220Z,15.10
2018-01-02T14:46:16.815Z,87.97
2018-01-02T14:48:44.462Z,141.83
2018-01-02T14:51:12.129Z,138.47
2018-01-02T14:53:39.733Z,168.27
2018-01-02T14:56:07.369Z,156.63
2018-01-02T14:58:34.961Z,148.27
2018-01-02T15:01:02.698Z,116.60
2018-01-02T15:03:30.341Z,143.47
2018-01-02T15:05:57.937Z,70.50
2018-01-02T15:08:25.491Z,49.30
2018-01-02T15:10:53.099Z,36.43
2018-01-02T15:13:20.687Z,35.50
2018-01-02T15:15:48.276Z,40.83
2018-01-02T15:18:15.900Z,38.03
2018-01-02T15:20:43.484Z,39.93
2018-01-02T15:23:11.076Z,34.43
2018-01-02T15:25:38.686Z,33.90
2018-01-02T15:28:06.311Z,28.33
2018-01-02T15:30:33.897Z,27.10
2018-01-02T15:33:01.568Z,26.70
2018-01-02T15:35:29.149Z,28.63
2018-01-02T15:37:56.741Z,29.10
2018-01-02T15:40:24.348Z,35.97
2018-01-02T15:42:51.912Z,32.50
2018-01-02T15:45:19.496Z,33.80
2018-01-02T15:47:47.112Z,31.17
2018-01-02T15:50:14.708Z,28.13
2018-01-02T15:52:42.340Z,31.77
2018-01-02T15:55:09.956Z,29.70
2018-01-02T15:57:37.522Z,24.03
2018-01-02T16:00:05.109Z,20.90
2018-01-02T16:02:32.785Z,19.47
2018-01-02T16:05:00.380Z,162.83
2018-01-02T16:07:27.972Z,245.63
2018-01-02T16:09:55.603Z,36.13
2018-01-02T16:12:23.187Z,147.60
2018-01-02T16:14:50.771Z,166.70
2018-01-02T16:17:18.381Z,145.97
2018-01-02T16:19:45.995Z,54.80
2018-01-02T16:22:13.571Z,99.33
2018-01-02T16:24:41.306Z,98.00
2018-01-02T16:27:08.913Z,62.70
2018-01-02T16:29:36.829Z,108.33
2018-01-02T16:32:04.497Z,50.37
2018-01-02T16:34:32.075Z,36.27
2018-01-02T16:36:59.816Z,40.87
2018-01-02T16:39:27.444Z,188.77
2018-01-02T16:41:55.016Z,62.53
2018-01-02T16:44:22.614Z,169.00
2018-01-02T16:46:50.253Z,90.10
2018-01-02T16:49:17.825Z,60.43
2018-01-02T16:51:45.933Z,46.00
2018-01-02T16:54:13.549Z,46.70
2018-01-02T16:56:41.115Z,34.90
2018-01-02T16:59:08.711Z,30.40
2018-01-02T17:01:36.341Z,30.42
2018-01-02T17:04:03.922Z,32.43
2018-01-02T17:06:31.500Z,43.20
2018-01-02T17:08:59.104Z,40.97
2018-01-02T17:11:26.889Z,88.03
2018-01-02T17:13:54.464Z,55.30
2018-01-02T17:16:22.094Z,36.77
2018-01-02T17:18:49.647Z,45.30
2018-01-02T17:21:17.213Z,38.57
2018-01-02T17:23:44.826Z,34.67
2018-01-02T17:26:12.407Z,37.10
2018-01-02T17:28:39.977Z,48.40
2018-01-02T17:31:07.588Z,40.80
2018-01-02T17:33:35.205Z,83.43
2018-01-02T17:36:02.803Z,43.80
2018-01-02T17:38:30.427Z,41.97
2018-01-02T17:40:58.009Z,136.47
2018-01-02T17:43:25.567Z,30.10
2018-01-02T17:45:53.165Z,37.13
2018-01-02T17:48:20.746Z,147.87
2018-01-02T17:50:48.333Z,59.10
2018-01-02T17:53:15.943Z,40.43
2018-01-02T17:55:43.524Z,31.63
2018-01-02T17:58:11.257Z,35.40
2018-01-02T18:00:38.881Z,50.17
2018-01-02T18:03:06.448Z,46.50
2018-01-02T18:05:34.012Z,34.60
2018-01-02T18:08:01.639Z,38.10
2018-01-02T18:10:29.209Z,24.83
2018-01-02T18:12:56.765Z,31.27
2018-01-02T18:15:24.403Z,51.23
2018-01-02T18:17:52.041Z,114.30
2018-01-02T18:20:19.616Z,198.10
2018-01-02T18:22:47.285Z,140.07
2018-01-02T18:25:14.851Z,52.63
2018-01-02T18:27:42.417Z,27.77
2018-01-02T18:30:10.030Z,21.87
2018-01-02T18:32:37.588Z,24.27
2018-01-02T18:35:05.140Z,35.97
2018-01-02T18:37:32.747Z,34.60
2018-01-02T18:40:00.317Z,36.00
2018-01-02T18:42:27.884Z,71.20
2018-01-02T18:44:55.477Z,60.93
2018-01-02T18:47:23.035Z,61.57
2018-01-02T18:49:50.618Z,35.07
2018-01-02T18:52:18.228Z,30.60
2018-01-02T18:54:45.855Z,73.70
2018-01-02T18:57:13.476Z,135.67
2018-01-02T18:59:41.101Z,113.43
2018-01-02T19:02:08.673Z,33.33
2018-01-02T19:04:36.252Z,49.03
2018-01-02T19:07:03.887Z,38.57
2018-01-02T19:09:31.462Z,35.73
2018-01-02T19:11:59.038Z,42.20
2018-01-02T19:14:26.645Z,42.17
2018-01-02T19:16:54.203Z,58.33
2018-01-02T19:19:21.761Z,56.77
2018-01-02T19:21:49.354Z,67.80
2018-01-02T19:24:16.935Z,61.10
2018-01-02T19:26:44.504Z,66.77
2018-01-02T19:29:12.094Z,51.20
2018-01-02T19:31:39.658Z,43.47
2018-01-02T19:34:07.219Z,82.78
2018-01-02T19:36:34.815Z,84.17
2018-01-02T19:39:02.393Z,89.63
2018-01-02T19:41:30.006Z,116.53
2018-01-02T19:43:57.610Z,70.10
2018-01-02T19:46:25.234Z,55.07
2018-01-02T19:48:52.810Z,77.27
2018-01-02T19:51:20.448Z,105.83
2018-01-02T19:53:48.026Z,106.90
2018-01-02T19:56:15.601Z,84.77
2018-01-02T19:58:43.191Z,96.83
2018-01-02T20:01:10.772Z,73.20
2018-01-02T20:03:38.364Z,74.87
2018-01-02T20:06:06.018Z,60.07
2018-01-02T20:08:33.587Z,53.30
2018-01-02T20:11:01.174Z,50.10
2018-01-02T20:13:28.791Z,48.30
2018-01-02T20:15:56.351Z,75.23
2018-01-02T20:18:29.511Z,57.20
2018-01-02T20:20:57.081Z,51.60
2018-01-02T20:23:24.664Z,52.50
2018-01-02T20:25:52.277Z,68.17
2018-01-02T20:28:19.841Z,65.57
2018-01-02T20:30:47.493Z,53.40
2018-01-02T20:33:15.098Z,52.30
2018-01-02T20:35:42.673Z,56.37
2018-01-02T20:38:10.240Z,65.40
2018-01-02T20:40:37.830Z,104.80
2018-01-02T20:43:05.431Z,105.83
2018-01-02T20:45:33.055Z,106.63
2018-01-02T20:48:00.671Z,115.37
2018-01-02T20:50:28.269Z,110.60
2018-01-02T20:52:55.853Z,115.03
2018-01-02T20:55:23.500Z,94.57
2018-01-02T20:57:51.158Z,78.70
2018-01-02T21:00:18.746Z,101.23
2018-01-02T21:02:46.359Z,94.07
2018-01-02T21:05:13.936Z,98.53
2018-01-02T21:07:41.512Z,87.50
2018-01-02T21:10:09.151Z,107.47
2018-01-02T21:12:36.734Z,125.50
2018-01-02T21:15:04.355Z,113.80
2018-01-02T21:17:31.977Z,111.60
2018-01-02T21:19:59.558Z,111.57
2018-01-02T21:22:27.133Z,114.53
2018-01-02T21:24:54.754Z,105.97
2018-01-02T21:27:22.318Z,106.03
2018-01-02T21:29:49.905Z,102.33
2018-01-02T21:32:17.486Z,104.33
2018-01-02T21:34:45.073Z,125.70
2018-01-02T21:37:12.652Z,110.83
2018-01-02T21:39:40.264Z,100.20
2018-01-02T21:42:07.828Z,112.07
2018-01-02T21:44:35.432Z,103.10
2018-01-02T21:47:03.045Z,99.43
2018-01-02T21:49:30.610Z,94.10
2018-01-02T21:51:58.198Z,95.10
2018-01-02T21:54:25.845Z,106.53
2018-01-02T21:56:53.509Z,117.23
2018-01-02T21:59:21.132Z,108.17
2018-01-02T22:01:48.792Z,103.03
2018-01-02T22:04:16.385Z,109.47
2018-01-02T22:06:43.969Z,95.73
2018-01-02T22:09:11.573Z,75.13
2018-01-02T22:11:39.248Z,83.03
2018-01-02T22:14:06.832Z,90.13
2018-01-02T22:16:34.446Z,78.57
2018-01-02T22:19:02.045Z,76.73
2018-01-02T22:21:29.607Z,82.27
2018-01-02T22:23:57.221Z,65.80
2018-01-02T22:26:24.793Z,61.07
2018-01-02T22:28:52.361Z,77.87
2018-01-02T22:31:19.964Z,74.13
2018-01-02T22:33:47.527Z,69.10
2018-01-02T22:36:15.102Z,59.83
2018-01-02T22:38:42.902Z,66.47
2018-01-02T22:41:10.474Z,60.83
2018-01-02T22:43:38.029Z,62.17
2018-01-02T22:46:06.240Z,65.10
2018-01-02T22:48:33.808Z,61.07
2018-01-02T22:51:01.390Z,57.27
2018-01-02T22:53:28.987Z,58.70
2018-01-02T22:55:56.638Z,57.20
2018-01-02T22:58:24.213Z,55.50
2018-01-02T23:00:51.813Z,52.67
2018-01-02T23:03:19.387Z,53.67
2018-01-02T23:05:46.952Z,52.10
2018-01-02T23:08:14.556Z,54.20
2018-01-02T23:10:42.121Z,58.23
2018-01-02T23:13:09.755Z,47.80
2018-01-02T23:15:37.334Z,44.07
2018-01-02T23:18:04.904Z,41.37
2018-01-02T23:20:32.514Z,38.13
2018-01-02T23:23:00.078Z,49.57
2018-01-02T23:25:27.632Z,47.60
2018-01-02T23:27:55.227Z,44.67
2018-01-02T23:30:22.797Z,45.40
2018-01-02T23:32:50.376Z,36.80
2018-01-02T23:35:17.988Z,46.47
2018-01-02T23:37:45.558Z,49.83
2018-01-02T23:40:13.135Z,53.50
2018-01-02T23:42:40.781Z,53.47
2018-01-02T23:45:08.338Z,61.60
2018-01-02T23:47:35.918Z,49.83
2018-01-02T23:50:03.521Z,54.03
2018-01-02T23:52:31.095Z,62.10
2018-01-02T23:54:58.664Z,69.10
2018-01-02T23:57:26.281Z,72.03
2018-01-02T23:59:53.851Z,64.30
